sensor_id;sensor_type;location;lat;lon;timestamp;P1;durP1;ratioP1;P2;durP2;ratioP2
5823;SDS011;2938;52.254;12.988;2023-03-23T00:00:08;4.07;;;2.67;;
5823;SDS011;2938;52.254;12.988;2023-03-23T00:02:37;3.33;;;2.97;;
5823;SDS011;2938;52.254;12.988;2023-03-23T00:05:32;5.68;;;3.60;;
5823;SDS011;2938;52.254;12.988;2023-03-23T00:08:06;7.40;;;3.25;;
5823;SDS011;2938;52.254;12.988;2023-03-23T00:11:14;4.25;;;3.42;;
5823;SDS011;2938;52.254;12.988;2023-03-23T00:13:59;4.15;;;2.97;;
5823;SDS011;2938;52.254;12.988;2023-03-23T00:16:38;5.50;;;3.55;;
5823;SDS011;2938;52.254;12.988;2023-03-23T00:19:15;3.70;;;3.08;;
5823;SDS011;2938;52.254;12.988;2023-03-23T00:21:50;6.57;;;3.40;;
5823;SDS011;2938;52.254;12.988;2023-03-23T00:24:52;3.60;;;2.65;;
5823;SDS011;2938;52.254;12.988;2023-03-23T00:27:21;4.47;;;2.78;;
5823;SDS011;2938;52.254;12.988;2023-03-23T00:29:56;5.43;;;2.92;;
5823;SDS011;2938;52.254;12.988;2023-03-23T00:32:25;4.93;;;2.92;;
5823;SDS011;2938;52.254;12.988;2023-03-23T00:35:09;6.18;;;4.00;;
5823;SDS011;2938;52.254;12.988;2023-03-23T00:37:43;6.38;;;3.45;;
5823;SDS011;2938;52.254;12.988;2023-03-23T00:40:14;5.68;;;3.05;;
5823;SDS011;2938;52.254;12.988;2023-03-23T00:42:45;6.70;;;2.97;;
5823;SDS011;2938;52.254;12.988;2023-03-23T00:45:17;6.78;;;3.88;;
5823;SDS011;2938;52.254;12.988;2023-03-23T00:48:00;4.40;;;3.63;;
5823;SDS011;2938;52.254;12.988;2023-03-23T00:50:27;5.93;;;3.75;;
5823;SDS011;2938;52.254;12.988;2023-03-23T00:53:02;5.60;;;4.22;;
5823;SDS011;2938;52.254;12.988;2023-03-23T00:58:14;5.72;;;4.38;;
5823;SDS011;2938;52.254;12.988;2023-03-23T01:03:31;4.45;;;3.67;;
5823;SDS011;2938;52.254;12.988;2023-03-23T01:06:03;11.32;;;4.10;;
5823;SDS011;2938;52.254;12.988;2023-03-23T01:08:37;10.15;;;4.40;;
5823;SDS011;2938;52.254;12.988;2023-03-23T01:11:07;4.80;;;3.13;;
5823;SDS011;2938;52.254;12.988;2023-03-23T01:13:43;4.95;;;4.18;;
5823;SDS011;2938;52.254;12.988;2023-03-23T01:16:11;6.47;;;3.95;;
5823;SDS011;2938;52.254;12.988;2023-03-23T01:18:40;7.05;;;4.25;;
5823;SDS011;2938;52.254;12.988;2023-03-23T01:21:07;4.53;;;3.42;;
5823;SDS011;2938;52.254;12.988;2023-03-23T01:23:48;7.10;;;4.30;;
5823;SDS011;2938;52.254;12.988;2023-03-23T01:26:21;5.97;;;3.55;;
5823;SDS011;2938;52.254;12.988;2023-03-23T01:29:08;6.47;;;3.72;;
5823;SDS011;2938;52.254;12.988;2023-03-23T01:31:36;5.47;;;3.67;;
5823;SDS011;2938;52.254;12.988;2023-03-23T01:34:10;9.23;;;3.67;;
5823;SDS011;2938;52.254;12.988;2023-03-23T01:36:45;7.38;;;4.50;;
5823;SDS011;2938;52.254;12.988;2023-03-23T01:39:16;5.88;;;3.92;;
5823;SDS011;2938;52.254;12.988;2023-03-23T01:41:44;7.43;;;3.30;;
5823;SDS011;2938;52.254;12.988;2023-03-23T01:46:47;4.60;;;3.13;;
5823;SDS011;2938;52.254;12.988;2023-03-23T01:49:17;3.55;;;3.10;;
5823;SDS011;2938;52.254;12.988;2023-03-23T01:52:05;5.93;;;4.03;;
5823;SDS011;2938;52.254;12.988;2023-03-23T01:54:43;3.80;;;2.83;;
5823;SDS011;2938;52.254;12.988;2023-03-23T01:57:11;3.78;;;2.78;;
5823;SDS011;2938;52.254;12.988;2023-03-23T02:00:05;6.85;;;4.00;;
5823;SDS011;2938;52.254;12.988;2023-03-23T02:03:01;6.35;;;3.85;;
5823;SDS011;2938;52.254;12.988;2023-03-23T02:05:52;4.63;;;3.38;;
5823;SDS011;2938;52.254;12.988;2023-03-23T02:11:53;3.10;;;2.70;;
5823;SDS011;2938;52.254;12.988;2023-03-23T02:14:40;4.18;;;3.28;;
5823;SDS011;2938;52.254;12.988;2023-03-23T02:17:30;2.75;;;2.55;;
5823;SDS011;2938;52.254;12.988;2023-03-23T02:20:17;3.28;;;3.00;;
5823;SDS011;2938;52.254;12.988;2023-03-23T02:35:48;5.78;;;3.17;;
5823;SDS011;2938;52.254;12.988;2023-03-23T02:41:09;2.45;;;2.25;;
5823;SDS011;2938;52.254;12.988;2023-03-23T02:43:49;3.40;;;3.10;;
5823;SDS011;2938;52.254;12.988;2023-03-23T02:46:59;4.25;;;3.42;;
5823;SDS011;2938;52.254;12.988;2023-03-23T02:49:48;3.08;;;2.47;;
5823;SDS011;2938;52.254;12.988;2023-03-23T02:52:33;5.40;;;2.30;;
5823;SDS011;2938;52.254;12.988;2023-03-23T02:57:59;2.75;;;2.25;;
5823;SDS011;2938;52.254;12.988;2023-03-23T03:07:42;6.65;;;2.80;;
5823;SDS011;2938;52.254;12.988;2023-03-23T03:10:38;4.72;;;2.30;;
5823;SDS011;2938;52.254;12.988;2023-03-23T03:21:57;3.03;;;2.25;;
5823;SDS011;2938;52.254;12.988;2023-03-23T03:24:35;3.15;;;2.38;;
5823;SDS011;2938;52.254;12.988;2023-03-23T03:27:11;3.25;;;2.95;;
5823;SDS011;2938;52.254;12.988;2023-03-23T03:35:40;4.22;;;3.10;;
5823;SDS011;2938;52.254;12.988;2023-03-23T03:38:11;2.60;;;2.40;;
5823;SDS011;2938;52.254;12.988;2023-03-23T03:40:52;4.80;;;3.10;;
5823;SDS011;2938;52.254;12.988;2023-03-23T03:43:27;4.60;;;2.95;;
5823;SDS011;2938;52.254;12.988;2023-03-23T03:46:11;4.40;;;3.25;;
5823;SDS011;2938;52.254;12.988;2023-03-23T03:48:48;3.03;;;2.17;;
5823;SDS011;2938;52.254;12.988;2023-03-23T03:51:52;4.10;;;2.80;;
5823;SDS011;2938;52.254;12.988;2023-03-23T03:54:30;3.80;;;2.65;;
5823;SDS011;2938;52.254;12.988;2023-03-23T03:57:13;4.80;;;2.75;;
5823;SDS011;2938;52.254;12.988;2023-03-23T04:03:19;6.25;;;2.42;;
5823;SDS011;2938;52.254;12.988;2023-03-23T04:06:15;4.43;;;2.38;;
5823;SDS011;2938;52.254;12.988;2023-03-23T04:08:45;5.18;;;3.38;;
5823;SDS011;2938;52.254;12.988;2023-03-23T04:11:46;3.10;;;2.58;;
5823;SDS011;2938;52.254;12.988;2023-03-23T04:20:19;4.38;;;2.20;;
5823;SDS011;2938;52.254;12.988;2023-03-23T04:22:53;4.35;;;3.00;;
5823;SDS011;2938;52.254;12.988;2023-03-23T04:25:47;4.85;;;3.38;;
5823;SDS011;2938;52.254;12.988;2023-03-23T04:28:23;7.20;;;2.92;;
5823;SDS011;2938;52.254;12.988;2023-03-23T04:30:50;3.38;;;2.38;;
5823;SDS011;2938;52.254;12.988;2023-03-23T04:33:19;4.30;;;2.75;;
5823;SDS011;2938;52.254;12.988;2023-03-23T04:35:46;4.60;;;2.95;;
5823;SDS011;2938;52.254;12.988;2023-03-23T04:38:15;3.75;;;2.85;;
5823;SDS011;2938;52.254;12.988;2023-03-23T04:40:43;3.53;;;2.58;;
5823;SDS011;2938;52.254;12.988;2023-03-23T04:43:09;5.32;;;2.20;;
5823;SDS011;2938;52.254;12.988;2023-03-23T04:45:38;2.38;;;2.15;;
5823;SDS011;2938;52.254;12.988;2023-03-23T04:48:12;2.30;;;2.05;;
5823;SDS011;2938;52.254;12.988;2023-03-23T04:50:38;4.90;;;2.67;;
5823;SDS011;2938;52.254;12.988;2023-03-23T04:53:04;4.97;;;2.20;;
5823;SDS011;2938;52.254;12.988;2023-03-23T04:55:34;6.15;;;2.40;;
5823;SDS011;2938;52.254;12.988;2023-03-23T04:58:03;4.00;;;2.60;;
5823;SDS011;2938;52.254;12.988;2023-03-23T05:00:34;2.75;;;1.98;;
5823;SDS011;2938;52.254;12.988;2023-03-23T05:03:07;3.00;;;1.75;;
5823;SDS011;2938;52.254;12.988;2023-03-23T05:05:38;7.68;;;2.53;;
5823;SDS011;2938;52.254;12.988;2023-03-23T05:08:10;5.45;;;2.05;;
5823;SDS011;2938;52.254;12.988;2023-03-23T05:14:35;3.05;;;1.70;;
5823;SDS011;2938;52.254;12.988;2023-03-23T05:17:11;8.13;;;1.52;;
5823;SDS011;2938;52.254;12.988;2023-03-23T05:19:37;4.45;;;1.75;;
5823;SDS011;2938;52.254;12.988;2023-03-23T05:22:06;5.55;;;2.15;;
5823;SDS011;2938;52.254;12.988;2023-03-23T05:25:01;2.33;;;1.85;;
5823;SDS011;2938;52.254;12.988;2023-03-23T05:27:29;1.88;;;1.45;;
5823;SDS011;2938;52.254;12.988;2023-03-23T05:30:07;7.05;;;1.52;;
5823;SDS011;2938;52.254;12.988;2023-03-23T05:33:07;2.10;;;1.52;;
5823;SDS011;2938;52.254;12.988;2023-03-23T05:35:35;4.65;;;1.85;;
5823;SDS011;2938;52.254;12.988;2023-03-23T05:38:01;2.97;;;1.65;;
5823;SDS011;2938;52.254;12.988;2023-03-23T05:40:29;5.18;;;1.98;;
5823;SDS011;2938;52.254;12.988;2023-03-23T05:43:14;6.95;;;1.90;;
5823;SDS011;2938;52.254;12.988;2023-03-23T05:45:43;7.03;;;1.98;;
5823;SDS011;2938;52.254;12.988;2023-03-23T05:48:18;4.43;;;1.90;;
5823;SDS011;2938;52.254;12.988;2023-03-23T05:50:44;4.80;;;2.53;;
5823;SDS011;2938;52.254;12.988;2023-03-23T05:53:10;7.43;;;2.08;;
5823;SDS011;2938;52.254;12.988;2023-03-23T05:55:38;3.92;;;2.00;;
5823;SDS011;2938;52.254;12.988;2023-03-23T05:58:11;4.70;;;2.42;;
5823;SDS011;2938;52.254;12.988;2023-03-23T06:00:40;6.78;;;2.05;;
5823;SDS011;2938;52.254;12.988;2023-03-23T06:03:15;3.85;;;1.95;;
5823;SDS011;2938;52.254;12.988;2023-03-23T06:05:52;9.77;;;3.05;;
5823;SDS011;2938;52.254;12.988;2023-03-23T06:08:17;4.10;;;1.83;;
5823;SDS011;2938;52.254;12.988;2023-03-23T06:10:56;3.58;;;1.88;;
5823;SDS011;2938;52.254;12.988;2023-03-23T06:13:24;7.07;;;2.53;;
5823;SDS011;2938;52.254;12.988;2023-03-23T06:15:50;6.57;;;2.67;;
5823;SDS011;2938;52.254;12.988;2023-03-23T06:18:31;7.05;;;2.97;;
5823;SDS011;2938;52.254;12.988;2023-03-23T06:21:02;5.78;;;2.78;;
5823;SDS011;2938;52.254;12.988;2023-03-23T06:23:29;3.63;;;2.47;;
5823;SDS011;2938;52.254;12.988;2023-03-23T06:25:56;3.63;;;2.33;;
5823;SDS011;2938;52.254;12.988;2023-03-23T06:28:24;3.42;;;2.08;;
5823;SDS011;2938;52.254;12.988;2023-03-23T06:30:49;3.90;;;2.45;;
5823;SDS011;2938;52.254;12.988;2023-03-23T06:33:17;2.53;;;2.05;;
5823;SDS011;2938;52.254;12.988;2023-03-23T06:35:43;3.42;;;3.10;;
5823;SDS011;2938;52.254;12.988;2023-03-23T06:38:08;2.50;;;2.28;;
5823;SDS011;2938;52.254;12.988;2023-03-23T06:40:34;2.67;;;2.30;;
5823;SDS011;2938;52.254;12.988;2023-03-23T06:43:03;5.38;;;2.47;;
5823;SDS011;2938;52.254;12.988;2023-03-23T06:45:29;6.35;;;3.15;;
5823;SDS011;2938;52.254;12.988;2023-03-23T06:47:55;6.43;;;2.45;;
5823;SDS011;2938;52.254;12.988;2023-03-23T06:50:30;6.30;;;2.92;;
5823;SDS011;2938;52.254;12.988;2023-03-23T06:53:04;2.67;;;2.30;;
5823;SDS011;2938;52.254;12.988;2023-03-23T06:55:35;4.72;;;2.17;;
5823;SDS011;2938;52.254;12.988;2023-03-23T06:58:01;7.25;;;3.40;;
5823;SDS011;2938;52.254;12.988;2023-03-23T07:00:27;6.60;;;2.90;;
5823;SDS011;2938;52.254;12.988;2023-03-23T07:02:52;5.22;;;3.05;;
5823;SDS011;2938;52.254;12.988;2023-03-23T07:05:18;4.53;;;2.63;;
5823;SDS011;2938;52.254;12.988;2023-03-23T07:07:43;3.72;;;2.72;;
5823;SDS011;2938;52.254;12.988;2023-03-23T07:10:09;4.00;;;3.20;;
5823;SDS011;2938;52.254;12.988;2023-03-23T07:12:35;5.22;;;2.55;;
5823;SDS011;2938;52.254;12.988;2023-03-23T07:15:35;4.85;;;2.80;;
5823;SDS011;2938;52.254;12.988;2023-03-23T07:18:02;5.25;;;3.58;;
5823;SDS011;2938;52.254;12.988;2023-03-23T07:20:27;11.52;;;3.78;;
5823;SDS011;2938;52.254;12.988;2023-03-23T07:23:00;3.80;;;3.38;;
5823;SDS011;2938;52.254;12.988;2023-03-23T07:25:34;9.68;;;2.97;;
5823;SDS011;2938;52.254;12.988;2023-03-23T07:28:00;7.85;;;3.05;;
5823;SDS011;2938;52.254;12.988;2023-03-23T07:30:29;7.45;;;3.05;;
5823;SDS011;2938;52.254;12.988;2023-03-23T07:32:59;6.68;;;2.75;;
5823;SDS011;2938;52.254;12.988;2023-03-23T07:35:31;4.18;;;2.40;;
5823;SDS011;2938;52.254;12.988;2023-03-23T07:37:59;6.05;;;4.15;;
5823;SDS011;2938;52.254;12.988;2023-03-23T07:40:27;4.72;;;3.30;;
5823;SDS011;2938;52.254;12.988;2023-03-23T07:42:58;7.15;;;2.80;;
5823;SDS011;2938;52.254;12.988;2023-03-23T07:45:24;3.55;;;2.75;;
5823;SDS011;2938;52.254;12.988;2023-03-23T07:47:50;11.63;;;3.22;;
5823;SDS011;2938;52.254;12.988;2023-03-23T07:50:15;5.38;;;3.22;;
5823;SDS011;2938;52.254;12.988;2023-03-23T07:52:42;6.05;;;3.45;;
5823;SDS011;2938;52.254;12.988;2023-03-23T07:55:08;5.28;;;3.60;;
5823;SDS011;2938;52.254;12.988;2023-03-23T07:57:50;9.77;;;3.83;;
5823;SDS011;2938;52.254;12.988;2023-03-23T08:00:27;5.47;;;3.03;;
5823;SDS011;2938;52.254;12.988;2023-03-23T08:03:04;5.38;;;3.10;;
5823;SDS011;2938;52.254;12.988;2023-03-23T08:05:29;5.97;;;2.85;;
5823;SDS011;2938;52.254;12.988;2023-03-23T08:07:58;3.03;;;2.33;;
5823;SDS011;2938;52.254;12.988;2023-03-23T08:10:31;6.47;;;3.05;;
5823;SDS011;2938;52.254;12.988;2023-03-23T08:13:00;5.22;;;2.55;;
5823;SDS011;2938;52.254;12.988;2023-03-23T08:15:37;4.28;;;2.70;;
5823;SDS011;2938;52.254;12.988;2023-03-23T08:18:35;6.70;;;3.13;;
5823;SDS011;2938;52.254;12.988;2023-03-23T08:21:11;6.00;;;3.03;;
5823;SDS011;2938;52.254;12.988;2023-03-23T08:24:18;9.23;;;2.38;;
5823;SDS011;2938;52.254;12.988;2023-03-23T08:29:58;14.07;;;3.15;;
5823;SDS011;2938;52.254;12.988;2023-03-23T08:35:53;2.90;;;2.60;;
5823;SDS011;2938;52.254;12.988;2023-03-23T08:38:26;3.45;;;2.17;;
5823;SDS011;2938;52.254;12.988;2023-03-23T08:40:59;7.10;;;2.58;;
5823;SDS011;2938;52.254;12.988;2023-03-23T08:43:34;6.07;;;2.92;;
5823;SDS011;2938;52.254;12.988;2023-03-23T08:46:11;3.40;;;2.10;;
5823;SDS011;2938;52.254;12.988;2023-03-23T08:49:00;3.70;;;1.80;;
5823;SDS011;2938;52.254;12.988;2023-03-23T08:51:36;5.80;;;2.58;;
5823;SDS011;2938;52.254;12.988;2023-03-23T08:54:02;4.05;;;2.30;;
5823;SDS011;2938;52.254;12.988;2023-03-23T08:56:33;4.05;;;2.63;;
5823;SDS011;2938;52.254;12.988;2023-03-23T08:59:08;6.00;;;2.30;;
5823;SDS011;2938;52.254;12.988;2023-03-23T09:01:59;6.07;;;2.38;;
5823;SDS011;2938;52.254;12.988;2023-03-23T09:07:27;2.78;;;1.90;;
5823;SDS011;2938;52.254;12.988;2023-03-23T09:09:59;3.03;;;1.80;;
5823;SDS011;2938;52.254;12.988;2023-03-23T09:12:46;4.63;;;2.13;;
5823;SDS011;2938;52.254;12.988;2023-03-23T09:15:52;2.40;;;1.83;;
5823;SDS011;2938;52.254;12.988;2023-03-23T09:18:21;6.47;;;1.90;;
5823;SDS011;2938;52.254;12.988;2023-03-23T09:20:50;3.85;;;2.42;;
5823;SDS011;2938;52.254;12.988;2023-03-23T09:23:16;5.72;;;2.30;;
5823;SDS011;2938;52.254;12.988;2023-03-23T09:30:58;4.57;;;2.85;;
5823;SDS011;2938;52.254;12.988;2023-03-23T09:33:24;4.00;;;1.70;;
5823;SDS011;2938;52.254;12.988;2023-03-23T09:35:51;2.67;;;1.58;;
5823;SDS011;2938;52.254;12.988;2023-03-23T09:38:35;2.67;;;2.05;;
5823;SDS011;2938;52.254;12.988;2023-03-23T09:41:12;3.65;;;2.05;;
5823;SDS011;2938;52.254;12.988;2023-03-23T09:44:07;4.80;;;2.33;;
5823;SDS011;2938;52.254;12.988;2023-03-23T09:46:53;6.07;;;2.35;;
5823;SDS011;2938;52.254;12.988;2023-03-23T09:49:28;2.88;;;1.58;;
5823;SDS011;2938;52.254;12.988;2023-03-23T09:52:03;3.92;;;2.30;;
5823;SDS011;2938;52.254;12.988;2023-03-23T09:54:52;3.20;;;1.80;;
5823;SDS011;2938;52.254;12.988;2023-03-23T10:02:41;3.95;;;2.72;;
5823;SDS011;2938;52.254;12.988;2023-03-23T10:08:05;5.95;;;2.70;;
5823;SDS011;2938;52.254;12.988;2023-03-23T10:16:29;2.25;;;2.03;;
5823;SDS011;2938;52.254;12.988;2023-03-23T10:19:08;2.63;;;1.83;;
5823;SDS011;2938;52.254;12.988;2023-03-23T10:22:11;3.13;;;1.85;;
5823;SDS011;2938;52.254;12.988;2023-03-23T10:25:17;3.97;;;2.50;;
5823;SDS011;2938;52.254;12.988;2023-03-23T10:31:03;2.25;;;1.80;;
5823;SDS011;2938;52.254;12.988;2023-03-23T10:33:49;3.85;;;2.25;;
5823;SDS011;2938;52.254;12.988;2023-03-23T10:42:30;2.17;;;1.50;;
5823;SDS011;2938;52.254;12.988;2023-03-23T11:17:54;4.72;;;2.40;;
5823;SDS011;2938;52.254;12.988;2023-03-23T11:20:41;2.13;;;1.73;;
5823;SDS011;2938;52.254;12.988;2023-03-23T11:27:05;2.45;;;1.70;;
5823;SDS011;2938;52.254;12.988;2023-03-23T11:30:03;2.25;;;2.05;;
5823;SDS011;2938;52.254;12.988;2023-03-23T11:35:55;3.28;;;2.03;;
5823;SDS011;2938;52.254;12.988;2023-03-23T11:38:57;5.38;;;1.75;;
5823;SDS011;2938;52.254;12.988;2023-03-23T11:45:05;3.10;;;2.00;;
5823;SDS011;2938;52.254;12.988;2023-03-23T11:57:09;4.38;;;2.22;;
5823;SDS011;2938;52.254;12.988;2023-03-23T11:59:58;2.45;;;2.17;;
5823;SDS011;2938;52.254;12.988;2023-03-23T12:26:55;2.38;;;2.10;;
5823;SDS011;2938;52.254;12.988;2023-03-23T12:42:28;3.72;;;2.20;;
5823;SDS011;2938;52.254;12.988;2023-03-23T12:48:15;5.63;;;2.33;;
5823;SDS011;2938;52.254;12.988;2023-03-23T12:51:08;9.13;;;2.83;;
5823;SDS011;2938;52.254;12.988;2023-03-23T12:56:59;3.08;;;2.28;;
5823;SDS011;2938;52.254;12.988;2023-03-23T13:03:25;9.93;;;2.30;;
5823;SDS011;2938;52.254;12.988;2023-03-23T13:11:39;2.75;;;1.75;;
5823;SDS011;2938;52.254;12.988;2023-03-23T13:28:29;3.08;;;1.73;;
5823;SDS011;2938;52.254;12.988;2023-03-23T13:30:59;2.75;;;1.77;;
5823;SDS011;2938;52.254;12.988;2023-03-23T13:33:37;4.70;;;1.60;;
5823;SDS011;2938;52.254;12.988;2023-03-23T13:36:10;2.38;;;1.83;;
5823;SDS011;2938;52.254;12.988;2023-03-23T13:38:45;3.78;;;2.33;;
5823;SDS011;2938;52.254;12.988;2023-03-23T13:41:20;5.78;;;2.10;;
5823;SDS011;2938;52.254;12.988;2023-03-23T13:44:03;5.38;;;2.03;;
5823;SDS011;2938;52.254;12.988;2023-03-23T13:46:36;3.33;;;1.92;;
5823;SDS011;2938;52.254;12.988;2023-03-23T13:49:18;4.22;;;2.30;;
5823;SDS011;2938;52.254;12.988;2023-03-23T13:52:06;3.90;;;1.70;;
5823;SDS011;2938;52.254;12.988;2023-03-23T13:54:47;2.60;;;1.80;;
5823;SDS011;2938;52.254;12.988;2023-03-23T14:00:11;4.35;;;1.90;;
5823;SDS011;2938;52.254;12.988;2023-03-23T14:06:12;2.85;;;1.77;;
5823;SDS011;2938;52.254;12.988;2023-03-23T14:08:49;5.00;;;2.40;;
5823;SDS011;2938;52.254;12.988;2023-03-23T14:11:31;4.88;;;1.95;;
5823;SDS011;2938;52.254;12.988;2023-03-23T14:14:18;10.77;;;3.47;;
5823;SDS011;2938;52.254;12.988;2023-03-23T14:16:48;4.47;;;2.13;;
5823;SDS011;2938;52.254;12.988;2023-03-23T14:19:41;2.80;;;1.83;;
5823;SDS011;2938;52.254;12.988;2023-03-23T14:25:15;2.83;;;2.03;;
5823;SDS011;2938;52.254;12.988;2023-03-23T14:27:43;6.32;;;2.35;;
5823;SDS011;2938;52.254;12.988;2023-03-23T14:30:18;5.32;;;2.20;;
5823;SDS011;2938;52.254;12.988;2023-03-23T14:32:57;3.75;;;1.60;;
5823;SDS011;2938;52.254;12.988;2023-03-23T14:35:41;3.17;;;2.00;;
5823;SDS011;2938;52.254;12.988;2023-03-23T14:38:32;3.15;;;2.20;;
5823;SDS011;2938;52.254;12.988;2023-03-23T14:44:10;4.38;;;1.40;;
5823;SDS011;2938;52.254;12.988;2023-03-23T14:46:51;5.05;;;1.77;;
5823;SDS011;2938;52.254;12.988;2023-03-23T14:49:56;2.70;;;1.33;;
5823;SDS011;2938;52.254;12.988;2023-03-23T14:52:35;4.43;;;2.22;;
5823;SDS011;2938;52.254;12.988;2023-03-23T14:55:21;2.90;;;1.40;;
5823;SDS011;2938;52.254;12.988;2023-03-23T14:57:55;5.60;;;2.35;;
5823;SDS011;2938;52.254;12.988;2023-03-23T15:00:23;2.28;;;1.38;;
5823;SDS011;2938;52.254;12.988;2023-03-23T15:03:01;2.85;;;1.60;;
5823;SDS011;2938;52.254;12.988;2023-03-23T15:05:40;6.68;;;2.15;;
5823;SDS011;2938;52.254;12.988;2023-03-23T15:08:13;4.93;;;1.95;;
5823;SDS011;2938;52.254;12.988;2023-03-23T15:10:40;3.05;;;1.13;;
5823;SDS011;2938;52.254;12.988;2023-03-23T15:13:09;7.80;;;2.53;;
5823;SDS011;2938;52.254;12.988;2023-03-23T15:15:43;3.97;;;1.52;;
5823;SDS011;2938;52.254;12.988;2023-03-23T15:18:29;3.13;;;1.52;;
5823;SDS011;2938;52.254;12.988;2023-03-23T15:27:14;4.00;;;1.80;;
5823;SDS011;2938;52.254;12.988;2023-03-23T15:30:19;2.72;;;1.75;;
5823;SDS011;2938;52.254;12.988;2023-03-23T15:33:12;5.72;;;2.20;;
5823;SDS011;2938;52.254;12.988;2023-03-23T15:35:45;8.02;;;1.88;;
5823;SDS011;2938;52.254;12.988;2023-03-23T15:38:29;5.65;;;1.58;;
5823;SDS011;2938;52.254;12.988;2023-03-23T15:41:01;2.08;;;1.20;;
5823;SDS011;2938;52.254;12.988;2023-03-23T15:43:33;9.80;;;2.75;;
5823;SDS011;2938;52.254;12.988;2023-03-23T15:46:01;8.10;;;2.20;;
5823;SDS011;2938;52.254;12.988;2023-03-23T15:51:13;5.22;;;2.05;;
5823;SDS011;2938;52.254;12.988;2023-03-23T15:54:33;6.82;;;2.10;;
5823;SDS011;2938;52.254;12.988;2023-03-23T16:04:16;2.75;;;1.85;;
5823;SDS011;2938;52.254;12.988;2023-03-23T16:07:16;3.47;;;2.15;;
5823;SDS011;2938;52.254;12.988;2023-03-23T16:10:02;5.88;;;1.67;;
5823;SDS011;2938;52.254;12.988;2023-03-23T16:12:34;2.92;;;1.25;;
5823;SDS011;2938;52.254;12.988;2023-03-23T16:15:00;6.38;;;2.03;;
5823;SDS011;2938;52.254;12.988;2023-03-23T16:22:59;4.63;;;1.95;;
5823;SDS011;2938;52.254;12.988;2023-03-23T16:29:33;2.65;;;1.65;;
5823;SDS011;2938;52.254;12.988;2023-03-23T16:33:18;5.82;;;1.50;;
5823;SDS011;2938;52.254;12.988;2023-03-23T16:35:42;3.28;;;1.58;;
5823;SDS011;2938;52.254;12.988;2023-03-23T16:38:37;3.22;;;1.67;;
5823;SDS011;2938;52.254;12.988;2023-03-23T16:41:22;2.22;;;0.95;;
5823;SDS011;2938;52.254;12.988;2023-03-23T16:43:54;1.10;;;1.00;;
5823;SDS011;2938;52.254;12.988;2023-03-23T16:57:18;2.33;;;1.67;;
5823;SDS011;2938;52.254;12.988;2023-03-23T16:59:51;3.92;;;1.35;;
5823;SDS011;2938;52.254;12.988;2023-03-23T17:02:40;4.03;;;1.08;;
5823;SDS011;2938;52.254;12.988;2023-03-23T17:05:41;8.90;;;4.13;;
5823;SDS011;2938;52.254;12.988;2023-03-23T17:08:11;3.35;;;1.95;;
5823;SDS011;2938;52.254;12.988;2023-03-23T17:11:26;3.38;;;1.95;;
5823;SDS011;2938;52.254;12.988;2023-03-23T17:19:37;2.70;;;1.55;;
5823;SDS011;2938;52.254;12.988;2023-03-23T17:22:44;3.55;;;1.85;;
5823;SDS011;2938;52.254;12.988;2023-03-23T17:25:36;4.78;;;1.50;;
5823;SDS011;2938;52.254;12.988;2023-03-23T17:28:25;3.85;;;1.63;;
5823;SDS011;2938;52.254;12.988;2023-03-23T17:33:36;2.17;;;1.48;;
5823;SDS011;2938;52.254;12.988;2023-03-23T17:39:02;3.30;;;1.65;;
5823;SDS011;2938;52.254;12.988;2023-03-23T17:41:27;14.43;;;3.40;;
5823;SDS011;2938;52.254;12.988;2023-03-23T17:44:01;3.05;;;2.17;;
5823;SDS011;2938;52.254;12.988;2023-03-23T17:46:34;6.40;;;3.72;;
5823;SDS011;2938;52.254;12.988;2023-03-23T18:10:12;6.78;;;2.40;;
5823;SDS011;2938;52.254;12.988;2023-03-23T18:15:58;3.88;;;2.53;;
5823;SDS011;2938;52.254;12.988;2023-03-23T18:18:23;5.90;;;3.00;;
5823;SDS011;2938;52.254;12.988;2023-03-23T18:21:01;3.15;;;2.05;;
5823;SDS011;2938;52.254;12.988;2023-03-23T18:30:15;5.55;;;2.05;;
5823;SDS011;2938;52.254;12.988;2023-03-23T18:32:51;8.35;;;3.47;;
5823;SDS011;2938;52.254;12.988;2023-03-23T18:35:40;4.57;;;2.77;;
5823;SDS011;2938;52.254;12.988;2023-03-23T18:38:12;6.30;;;2.80;;
5823;SDS011;2938;52.254;12.988;2023-03-23T18:40:42;5.78;;;3.35;;
5823;SDS011;2938;52.254;12.988;2023-03-23T18:43:11;3.35;;;2.70;;
5823;SDS011;2938;52.254;12.988;2023-03-23T18:45:36;6.88;;;2.78;;
5823;SDS011;2938;52.254;12.988;2023-03-23T18:48:10;7.15;;;2.83;;
5823;SDS011;2938;52.254;12.988;2023-03-23T18:50:35;6.00;;;2.28;;
5823;SDS011;2938;52.254;12.988;2023-03-23T18:56:05;12.90;;;2.85;;
5823;SDS011;2938;52.254;12.988;2023-03-23T18:58:35;8.80;;;4.00;;
5823;SDS011;2938;52.254;12.988;2023-03-23T19:01:19;5.50;;;3.72;;
5823;SDS011;2938;52.254;12.988;2023-03-23T19:10:54;7.13;;;3.40;;
5823;SDS011;2938;52.254;12.988;2023-03-23T19:13:58;5.32;;;3.42;;
5823;SDS011;2938;52.254;12.988;2023-03-23T19:16:38;11.20;;;3.35;;
5823;SDS011;2938;52.254;12.988;2023-03-23T19:19:23;12.70;;;3.83;;
5823;SDS011;2938;52.254;12.988;2023-03-23T19:21:55;10.02;;;3.67;;
5823;SDS011;2938;52.254;12.988;2023-03-23T19:24:55;8.70;;;3.47;;
5823;SDS011;2938;52.254;12.988;2023-03-23T19:31:45;13.15;;;4.60;;
5823;SDS011;2938;52.254;12.988;2023-03-23T19:34:31;4.30;;;3.10;;
5823;SDS011;2938;52.254;12.988;2023-03-23T19:36:56;4.13;;;3.33;;
5823;SDS011;2938;52.254;12.988;2023-03-23T19:39:31;6.25;;;4.25;;
5823;SDS011;2938;52.254;12.988;2023-03-23T19:45:55;17.10;;;5.13;;
5823;SDS011;2938;52.254;12.988;2023-03-23T19:51:04;8.57;;;4.72;;
5823;SDS011;2938;52.254;12.988;2023-03-23T19:53:50;6.00;;;3.58;;
5823;SDS011;2938;52.254;12.988;2023-03-23T19:56:29;13.82;;;5.57;;
5823;SDS011;2938;52.254;12.988;2023-03-23T19:59:03;11.13;;;6.28;;
5823;SDS011;2938;52.254;12.988;2023-03-23T20:02:26;9.38;;;4.57;;
5823;SDS011;2938;52.254;12.988;2023-03-23T20:05:11;10.48;;;5.18;;
5823;SDS011;2938;52.254;12.988;2023-03-23T20:07:51;9.35;;;5.10;;
5823;SDS011;2938;52.254;12.988;2023-03-23T20:10:37;16.73;;;8.13;;
5823;SDS011;2938;52.254;12.988;2023-03-23T20:13:12;13.90;;;7.00;;
5823;SDS011;2938;52.254;12.988;2023-03-23T20:18:35;15.43;;;8.77;;
5823;SDS011;2938;52.254;12.988;2023-03-23T20:26:33;10.02;;;6.30;;
5823;SDS011;2938;52.254;12.988;2023-03-23T20:29:10;13.32;;;7.75;;
5823;SDS011;2938;52.254;12.988;2023-03-23T20:31:47;14.77;;;7.13;;
5823;SDS011;2938;52.254;12.988;2023-03-23T20:36:54;14.50;;;5.38;;
5823;SDS011;2938;52.254;12.988;2023-03-23T20:39:21;15.40;;;5.25;;
5823;SDS011;2938;52.254;12.988;2023-03-23T20:41:47;8.27;;;4.22;;
5823;SDS011;2938;52.254;12.988;2023-03-23T20:44:43;6.35;;;4.07;;
5823;SDS011;2938;52.254;12.988;2023-03-23T20:47:08;8.60;;;4.93;;
5823;SDS011;2938;52.254;12.988;2023-03-23T20:49:35;7.57;;;4.68;;
5823;SDS011;2938;52.254;12.988;2023-03-23T20:52:02;6.35;;;4.32;;
5823;SDS011;2938;52.254;12.988;2023-03-23T20:54:47;5.05;;;3.42;;
5823;SDS011;2938;52.254;12.988;2023-03-23T20:57:14;5.20;;;4.30;;
5823;SDS011;2938;52.254;12.988;2023-03-23T21:06:01;10.30;;;4.40;;
5823;SDS011;2938;52.254;12.988;2023-03-23T21:08:30;16.50;;;5.28;;
5823;SDS011;2938;52.254;12.988;2023-03-23T21:11:00;6.93;;;4.03;;
5823;SDS011;2938;52.254;12.988;2023-03-23T21:13:29;8.52;;;4.25;;
5823;SDS011;2938;52.254;12.988;2023-03-23T21:15:55;6.50;;;3.70;;
5823;SDS011;2938;52.254;12.988;2023-03-23T21:22:33;9.40;;;4.80;;
5823;SDS011;2938;52.254;12.988;2023-03-23T21:25:12;10.55;;;4.55;;
5823;SDS011;2938;52.254;12.988;2023-03-23T21:27:58;7.28;;;4.78;;
5823;SDS011;2938;52.254;12.988;2023-03-23T21:30:38;9.80;;;4.97;;
5823;SDS011;2938;52.254;12.988;2023-03-23T21:33:09;6.00;;;4.60;;
5823;SDS011;2938;52.254;12.988;2023-03-23T21:39:51;4.93;;;4.43;;
5823;SDS011;2938;52.254;12.988;2023-03-23T21:42:17;8.23;;;3.97;;
5823;SDS011;2938;52.254;12.988;2023-03-23T21:44:44;6.68;;;4.10;;
5823;SDS011;2938;52.254;12.988;2023-03-23T21:47:14;7.03;;;4.57;;
5823;SDS011;2938;52.254;12.988;2023-03-23T21:50:00;13.48;;;4.35;;
5823;SDS011;2938;52.254;12.988;2023-03-23T21:52:33;8.15;;;4.88;;
5823;SDS011;2938;52.254;12.988;2023-03-23T21:55:11;5.20;;;4.07;;
5823;SDS011;2938;52.254;12.988;2023-03-23T21:57:37;4.80;;;3.75;;